sensor_id;sensor_type;location;lat;lon;timestamp;P1;durP1;ratioP1;P2;durP2;ratioP2
20146;SDS011;10234;50.856;15.716;2023-03-23T00:00:56;2.53;;;1.13;;
20146;SDS011;10234;50.856;15.716;2023-03-23T00:03:23;1.90;;;1.42;;
20146;SDS011;10234;50.856;15.716;2023-03-23T00:05:53;1.45;;;1.35;;
20146;SDS011;10234;50.856;15.716;2023-03-23T00:08:24;1.80;;;1.40;;
20146;SDS011;10234;50.856;15.716;2023-03-23T00:10:53;1.55;;;1.25;;
20146;SDS011;10234;50.856;15.716;2023-03-23T00:13:21;2.13;;;1.30;;
20146;SDS011;10234;50.856;15.716;2023-03-23T00:15:49;2.33;;;1.45;;
20146;SDS011;10234;50.856;15.716;2023-03-23T00:18:17;2.50;;;1.20;;
20146;SDS011;10234;50.856;15.716;2023-03-23T00:20:48;1.35;;;1.25;;
20146;SDS011;10234;50.856;15.716;2023-03-23T00:23:16;2.22;;;1.70;;
20146;SDS011;10234;50.856;15.716;2023-03-23T00:25:46;2.92;;;1.40;;
20146;SDS011;10234;50.856;15.716;2023-03-23T00:28:15;1.50;;;1.35;;
20146;SDS011;10234;50.856;15.716;2023-03-23T00:30:43;3.60;;;1.40;;
20146;SDS011;10234;50.856;15.716;2023-03-23T00:33:10;2.47;;;1.60;;
20146;SDS011;10234;50.856;15.716;2023-03-23T00:35:38;2.22;;;1.40;;
20146;SDS011;10234;50.856;15.716;2023-03-23T00:38:06;2.33;;;1.45;;
20146;SDS011;10234;50.856;15.716;2023-03-23T00:40:33;1.70;;;1.40;;
20146;SDS011;10234;50.856;15.716;2023-03-23T00:43:02;1.50;;;1.40;;
20146;SDS011;10234;50.856;15.716;2023-03-23T00:45:31;2.65;;;1.17;;
20146;SDS011;10234;50.856;15.716;2023-03-23T00:47:59;2.25;;;1.55;;
20146;SDS011;10234;50.856;15.716;2023-03-23T00:50:30;1.83;;;1.50;;
20146;SDS011;10234;50.856;15.716;2023-03-23T00:52:57;2.15;;;1.60;;
20146;SDS011;10234;50.856;15.716;2023-03-23T00:55:24;1.50;;;1.20;;
20146;SDS011;10234;50.856;15.716;2023-03-23T00:57:51;1.70;;;1.30;;
20146;SDS011;10234;50.856;15.716;2023-03-23T01:00:19;1.65;;;0.80;;
20146;SDS011;10234;50.856;15.716;2023-03-23T01:02:48;2.03;;;1.05;;
20146;SDS011;10234;50.856;15.716;2023-03-23T01:05:16;1.02;;;0.90;;
20146;SDS011;10234;50.856;15.716;2023-03-23T01:07:44;1.02;;;0.90;;
20146;SDS011;10234;50.856;15.716;2023-03-23T01:10:11;1.15;;;0.80;;
20146;SDS011;10234;50.856;15.716;2023-03-23T01:12:41;1.25;;;1.00;;
20146;SDS011;10234;50.856;15.716;2023-03-23T01:15:10;1.08;;;0.98;;
20146;SDS011;10234;50.856;15.716;2023-03-23T01:17:41;1.10;;;0.80;;
20146;SDS011;10234;50.856;15.716;2023-03-23T01:20:09;1.27;;;1.15;;
20146;SDS011;10234;50.856;15.716;2023-03-23T01:22:37;3.42;;;1.45;;
20146;SDS011;10234;50.856;15.716;2023-03-23T01:25:05;1.70;;;1.08;;
20146;SDS011;10234;50.856;15.716;2023-03-23T01:27:33;1.10;;;1.00;;
20146;SDS011;10234;50.856;15.716;2023-03-23T01:29:59;1.05;;;0.80;;
20146;SDS011;10234;50.856;15.716;2023-03-23T01:32:26;2.13;;;1.23;;
20146;SDS011;10234;50.856;15.716;2023-03-23T01:34:54;2.03;;;0.88;;
20146;SDS011;10234;50.856;15.716;2023-03-23T01:37:22;1.33;;;1.10;;
20146;SDS011;10234;50.856;15.716;2023-03-23T01:39:51;1.52;;;1.00;;
20146;SDS011;10234;50.856;15.716;2023-03-23T01:42:20;2.60;;;0.93;;
20146;SDS011;10234;50.856;15.716;2023-03-23T01:47:54;0.80;;;0.80;;
20146;SDS011;10234;50.856;15.716;2023-03-23T01:50:25;0.70;;;0.68;;
20146;SDS011;10234;50.856;15.716;2023-03-23T01:52:55;3.17;;;1.20;;
20146;SDS011;10234;50.856;15.716;2023-03-23T01:55:25;1.23;;;1.13;;
20146;SDS011;10234;50.856;15.716;2023-03-23T01:57:54;1.25;;;1.15;;
20146;SDS011;10234;50.856;15.716;2023-03-23T02:00:22;2.58;;;1.00;;
20146;SDS011;10234;50.856;15.716;2023-03-23T02:02:50;1.48;;;0.80;;
20146;SDS011;10234;50.856;15.716;2023-03-23T02:05:21;2.67;;;1.10;;
20146;SDS011;10234;50.856;15.716;2023-03-23T02:07:53;3.08;;;1.20;;
20146;SDS011;10234;50.856;15.716;2023-03-23T02:10:24;1.05;;;0.77;;
20146;SDS011;10234;50.856;15.716;2023-03-23T02:12:50;1.67;;;1.10;;
20146;SDS011;10234;50.856;15.716;2023-03-23T02:15:18;3.45;;;0.90;;
20146;SDS011;10234;50.856;15.716;2023-03-23T02:17:46;1.52;;;0.90;;
20146;SDS011;10234;50.856;15.716;2023-03-23T02:20:18;1.17;;;0.82;;
20146;SDS011;10234;50.856;15.716;2023-03-23T02:23:08;2.10;;;0.82;;
20146;SDS011;10234;50.856;15.716;2023-03-23T02:25:53;1.52;;;0.90;;
20146;SDS011;10234;50.856;15.716;2023-03-23T02:28:39;1.73;;;1.20;;
20146;SDS011;10234;50.856;15.716;2023-03-23T02:31:18;1.85;;;1.08;;
20146;SDS011;10234;50.856;15.716;2023-03-23T02:33:56;1.23;;;0.90;;
20146;SDS011;10234;50.856;15.716;2023-03-23T02:36:29;1.27;;;1.00;;
20146;SDS011;10234;50.856;15.716;2023-03-23T02:39:01;2.05;;;1.10;;
20146;SDS011;10234;50.856;15.716;2023-03-23T02:41:36;6.28;;;1.60;;
20146;SDS011;10234;50.856;15.716;2023-03-23T02:44:06;1.50;;;1.30;;
20146;SDS011;10234;50.856;15.716;2023-03-23T02:46:34;2.58;;;1.20;;
20146;SDS011;10234;50.856;15.716;2023-03-23T02:49:03;1.55;;;1.40;;
20146;SDS011;10234;50.856;15.716;2023-03-23T02:51:34;1.75;;;1.40;;
20146;SDS011;10234;50.856;15.716;2023-03-23T02:54:03;2.08;;;1.08;;
20146;SDS011;10234;50.856;15.716;2023-03-23T02:56:31;0.90;;;0.90;;
20146;SDS011;10234;50.856;15.716;2023-03-23T02:59:00;1.42;;;0.98;;
20146;SDS011;10234;50.856;15.716;2023-03-23T03:01:50;1.75;;;0.93;;
20146;SDS011;10234;50.856;15.716;2023-03-23T03:04:25;2.28;;;1.23;;
20146;SDS011;10234;50.856;15.716;2023-03-23T03:06:57;3.95;;;1.25;;
20146;SDS011;10234;50.856;15.716;2023-03-23T03:09:42;1.77;;;0.70;;
20146;SDS011;10234;50.856;15.716;2023-03-23T03:12:17;2.20;;;0.90;;
20146;SDS011;10234;50.856;15.716;2023-03-23T03:14:51;1.00;;;1.00;;
20146;SDS011;10234;50.856;15.716;2023-03-23T03:17:25;2.47;;;1.10;;
20146;SDS011;10234;50.856;15.716;2023-03-23T03:19:54;2.00;;;1.30;;
20146;SDS011;10234;50.856;15.716;2023-03-23T03:22:27;1.55;;;1.45;;
20146;SDS011;10234;50.856;15.716;2023-03-23T03:24:55;2.50;;;1.23;;
20146;SDS011;10234;50.856;15.716;2023-03-23T03:27:24;1.30;;;1.10;;
20146;SDS011;10234;50.856;15.716;2023-03-23T03:29:53;2.60;;;1.08;;
20146;SDS011;10234;50.856;15.716;2023-03-23T03:32:24;2.70;;;1.20;;
20146;SDS011;10234;50.856;15.716;2023-03-23T03:34:59;1.58;;;1.17;;
20146;SDS011;10234;50.856;15.716;2023-03-23T03:37:27;1.27;;;1.10;;
20146;SDS011;10234;50.856;15.716;2023-03-23T03:40:02;4.25;;;1.50;;
20146;SDS011;10234;50.856;15.716;2023-03-23T03:42:35;1.70;;;1.40;;
20146;SDS011;10234;50.856;15.716;2023-03-23T03:45:03;1.60;;;1.20;;
20146;SDS011;10234;50.856;15.716;2023-03-23T03:47:30;2.03;;;1.30;;
20146;SDS011;10234;50.856;15.716;2023-03-23T03:49:57;2.63;;;1.15;;
20146;SDS011;10234;50.856;15.716;2023-03-23T03:52:25;1.70;;;1.50;;
20146;SDS011;10234;50.856;15.716;2023-03-23T03:54:53;2.70;;;1.50;;
20146;SDS011;10234;50.856;15.716;2023-03-23T03:57:21;1.20;;;1.10;;
20146;SDS011;10234;50.856;15.716;2023-03-23T03:59:48;1.67;;;1.30;;
20146;SDS011;10234;50.856;15.716;2023-03-23T04:02:15;1.67;;;1.50;;
20146;SDS011;10234;50.856;15.716;2023-03-23T04:04:45;1.85;;;1.30;;
20146;SDS011;10234;50.856;15.716;2023-03-23T04:07:12;1.33;;;1.23;;
20146;SDS011;10234;50.856;15.716;2023-03-23T04:09:42;1.15;;;1.10;;
20146;SDS011;10234;50.856;15.716;2023-03-23T04:12:11;1.98;;;1.17;;
20146;SDS011;10234;50.856;15.716;2023-03-23T04:14:38;2.00;;;1.20;;
20146;SDS011;10234;50.856;15.716;2023-03-23T04:17:05;1.17;;;1.10;;
20146;SDS011;10234;50.856;15.716;2023-03-23T04:19:34;3.40;;;1.40;;
20146;SDS011;10234;50.856;15.716;2023-03-23T04:22:01;1.30;;;1.20;;
20146;SDS011;10234;50.856;15.716;2023-03-23T04:24:29;2.63;;;1.33;;
20146;SDS011;10234;50.856;15.716;2023-03-23T04:26:59;1.48;;;1.38;;
20146;SDS011;10234;50.856;15.716;2023-03-23T04:29:28;1.40;;;1.13;;
20146;SDS011;10234;50.856;15.716;2023-03-23T04:31:55;1.20;;;1.10;;
20146;SDS011;10234;50.856;15.716;2023-03-23T04:34:22;2.15;;;1.27;;
20146;SDS011;10234;50.856;15.716;2023-03-23T04:36:50;1.70;;;1.20;;
20146;SDS011;10234;50.856;15.716;2023-03-23T04:39:18;1.33;;;1.23;;
20146;SDS011;10234;50.856;15.716;2023-03-23T04:41:45;1.88;;;1.27;;
20146;SDS011;10234;50.856;15.716;2023-03-23T04:44:14;1.73;;;1.40;;
20146;SDS011;10234;50.856;15.716;2023-03-23T04:46:46;2.10;;;1.52;;
20146;SDS011;10234;50.856;15.716;2023-03-23T04:49:14;1.50;;;1.40;;
20146;SDS011;10234;50.856;15.716;2023-03-23T04:51:45;1.75;;;1.23;;
20146;SDS011;10234;50.856;15.716;2023-03-23T04:54:12;1.40;;;1.10;;
20146;SDS011;10234;50.856;15.716;2023-03-23T04:56:39;1.75;;;1.25;;
20146;SDS011;10234;50.856;15.716;2023-03-23T04:59:06;3.00;;;1.15;;
20146;SDS011;10234;50.856;15.716;2023-03-23T05:01:35;1.60;;;1.13;;
20146;SDS011;10234;50.856;15.716;2023-03-23T05:04:03;1.35;;;1.20;;
20146;SDS011;10234;50.856;15.716;2023-03-23T05:06:30;1.27;;;1.17;;
20146;SDS011;10234;50.856;15.716;2023-03-23T05:08:57;1.40;;;1.30;;
20146;SDS011;10234;50.856;15.716;2023-03-23T05:11:24;1.83;;;1.20;;
20146;SDS011;10234;50.856;15.716;2023-03-23T05:13:52;1.63;;;1.23;;
20146;SDS011;10234;50.856;15.716;2023-03-23T05:16:18;1.95;;;1.75;;
20146;SDS011;10234;50.856;15.716;2023-03-23T05:18:47;3.10;;;1.70;;
20146;SDS011;10234;50.856;15.716;2023-03-23T05:21:14;2.47;;;2.05;;
20146;SDS011;10234;50.856;15.716;2023-03-23T05:23:41;2.63;;;1.70;;
20146;SDS011;10234;50.856;15.716;2023-03-23T05:26:08;2.00;;;1.80;;
20146;SDS011;10234;50.856;15.716;2023-03-23T05:28:35;1.80;;;1.70;;
20146;SDS011;10234;50.856;15.716;2023-03-23T05:31:02;2.35;;;1.92;;
20146;SDS011;10234;50.856;15.716;2023-03-23T05:33:29;2.20;;;2.00;;
20146;SDS011;10234;50.856;15.716;2023-03-23T05:35:58;3.20;;;1.80;;
20146;SDS011;10234;50.856;15.716;2023-03-23T05:38:25;2.97;;;1.85;;
20146;SDS011;10234;50.856;15.716;2023-03-23T05:40:53;2.90;;;2.30;;
20146;SDS011;10234;50.856;15.716;2023-03-23T05:43:20;3.00;;;1.80;;
20146;SDS011;10234;50.856;15.716;2023-03-23T05:45:47;3.15;;;1.95;;
20146;SDS011;10234;50.856;15.716;2023-03-23T05:48:14;3.08;;;2.50;;
20146;SDS011;10234;50.856;15.716;2023-03-23T05:50:41;3.15;;;2.25;;
20146;SDS011;10234;50.856;15.716;2023-03-23T05:53:10;4.57;;;2.28;;
20146;SDS011;10234;50.856;15.716;2023-03-23T05:55:37;2.10;;;1.90;;
20146;SDS011;10234;50.856;15.716;2023-03-23T05:58:04;4.30;;;2.40;;
20146;SDS011;10234;50.856;15.716;2023-03-23T06:00:31;4.18;;;2.80;;
20146;SDS011;10234;50.856;15.716;2023-03-23T06:02:59;2.28;;;2.10;;
20146;SDS011;10234;50.856;15.716;2023-03-23T06:05:27;2.83;;;2.30;;
20146;SDS011;10234;50.856;15.716;2023-03-23T06:07:54;2.38;;;2.17;;
20146;SDS011;10234;50.856;15.716;2023-03-23T06:10:24;2.50;;;2.30;;
20146;SDS011;10234;50.856;15.716;2023-03-23T06:12:51;3.10;;;2.22;;
20146;SDS011;10234;50.856;15.716;2023-03-23T06:15:19;2.60;;;2.17;;
20146;SDS011;10234;50.856;15.716;2023-03-23T06:17:46;2.58;;;1.98;;
20146;SDS011;10234;50.856;15.716;2023-03-23T06:20:15;2.80;;;2.45;;
20146;SDS011;10234;50.856;15.716;2023-03-23T06:22:42;4.18;;;2.70;;
20146;SDS011;10234;50.856;15.716;2023-03-23T06:25:10;2.63;;;2.42;;
20146;SDS011;10234;50.856;15.716;2023-03-23T06:27:39;4.90;;;2.38;;
20146;SDS011;10234;50.856;15.716;2023-03-23T06:30:06;2.92;;;1.83;;
20146;SDS011;10234;50.856;15.716;2023-03-23T06:32:34;6.45;;;2.45;;
20146;SDS011;10234;50.856;15.716;2023-03-23T06:35:01;2.92;;;2.40;;
20146;SDS011;10234;50.856;15.716;2023-03-23T06:37:28;2.92;;;2.08;;
20146;SDS011;10234;50.856;15.716;2023-03-23T06:39:56;2.58;;;2.33;;
20146;SDS011;10234;50.856;15.716;2023-03-23T06:42:23;3.55;;;2.10;;
20146;SDS011;10234;50.856;15.716;2023-03-23T06:44:52;3.65;;;2.30;;
20146;SDS011;10234;50.856;15.716;2023-03-23T06:47:21;2.08;;;1.88;;
20146;SDS011;10234;50.856;15.716;2023-03-23T06:49:49;2.15;;;1.52;;
20146;SDS011;10234;50.856;15.716;2023-03-23T06:52:16;3.33;;;1.77;;
20146;SDS011;10234;50.856;15.716;2023-03-23T06:54:42;2.22;;;1.60;;
20146;SDS011;10234;50.856;15.716;2023-03-23T06:57:09;1.67;;;1.50;;
20146;SDS011;10234;50.856;15.716;2023-03-23T06:59:37;1.92;;;1.30;;
20146;SDS011;10234;50.856;15.716;2023-03-23T07:02:05;2.53;;;1.40;;
20146;SDS011;10234;50.856;15.716;2023-03-23T07:04:34;1.33;;;1.02;;
20146;SDS011;10234;50.856;15.716;2023-03-23T07:07:02;2.65;;;1.70;;
20146;SDS011;10234;50.856;15.716;2023-03-23T07:09:30;1.85;;;1.27;;
20146;SDS011;10234;50.856;15.716;2023-03-23T07:11:57;1.67;;;1.38;;
20146;SDS011;10234;50.856;15.716;2023-03-23T07:14:24;1.40;;;1.30;;
20146;SDS011;10234;50.856;15.716;2023-03-23T07:16:51;3.97;;;1.90;;
20146;SDS011;10234;50.856;15.716;2023-03-23T07:19:20;3.22;;;1.27;;
20146;SDS011;10234;50.856;15.716;2023-03-23T07:21:47;2.40;;;1.60;;
20146;SDS011;10234;50.856;15.716;2023-03-23T07:24:15;1.80;;;1.45;;
20146;SDS011;10234;50.856;15.716;2023-03-23T07:26:43;1.70;;;1.35;;
20146;SDS011;10234;50.856;15.716;2023-03-23T07:29:11;1.38;;;1.23;;
20146;SDS011;10234;50.856;15.716;2023-03-23T07:31:38;1.00;;;0.90;;
20146;SDS011;10234;50.856;15.716;2023-03-23T07:34:05;1.55;;;1.00;;
20146;SDS011;10234;50.856;15.716;2023-03-23T07:36:33;3.80;;;1.20;;
20146;SDS011;10234;50.856;15.716;2023-03-23T07:39:02;1.23;;;1.13;;
20146;SDS011;10234;50.856;15.716;2023-03-23T07:41:30;0.82;;;0.82;;
20146;SDS011;10234;50.856;15.716;2023-03-23T07:43:57;0.95;;;0.80;;
20146;SDS011;10234;50.856;15.716;2023-03-23T07:46:24;1.00;;;1.00;;
20146;SDS011;10234;50.856;15.716;2023-03-23T07:48:51;1.23;;;1.00;;
20146;SDS011;10234;50.856;15.716;2023-03-23T07:51:18;1.60;;;1.40;;
20146;SDS011;10234;50.856;15.716;2023-03-23T07:53:47;1.23;;;1.08;;
20146;SDS011;10234;50.856;15.716;2023-03-23T07:56:15;2.67;;;1.30;;
20146;SDS011;10234;50.856;15.716;2023-03-23T07:58:44;4.07;;;1.02;;
20146;SDS011;10234;50.856;15.716;2023-03-23T08:01:11;2.45;;;1.40;;
20146;SDS011;10234;50.856;15.716;2023-03-23T08:03:38;1.42;;;1.20;;
20146;SDS011;10234;50.856;15.716;2023-03-23T08:06:05;1.27;;;1.13;;
20146;SDS011;10234;50.856;15.716;2023-03-23T08:08:33;3.42;;;1.30;;
20146;SDS011;10234;50.856;15.716;2023-03-23T08:11:02;1.30;;;1.20;;
20146;SDS011;10234;50.856;15.716;2023-03-23T08:13:29;1.35;;;1.20;;
20146;SDS011;10234;50.856;15.716;2023-03-23T08:15:56;1.90;;;1.30;;
20146;SDS011;10234;50.856;15.716;2023-03-23T08:18:23;1.50;;;1.40;;
20146;SDS011;10234;50.856;15.716;2023-03-23T08:20:51;2.80;;;1.10;;
20146;SDS011;10234;50.856;15.716;2023-03-23T08:23:18;1.75;;;0.80;;
20146;SDS011;10234;50.856;15.716;2023-03-23T08:25:46;1.05;;;1.00;;
20146;SDS011;10234;50.856;15.716;2023-03-23T08:28:15;0.80;;;0.80;;
20146;SDS011;10234;50.856;15.716;2023-03-23T08:30:42;2.90;;;0.90;;
20146;SDS011;10234;50.856;15.716;2023-03-23T08:33:08;0.82;;;0.77;;
20146;SDS011;10234;50.856;15.716;2023-03-23T08:35:36;0.80;;;0.80;;
20146;SDS011;10234;50.856;15.716;2023-03-23T08:38:03;1.95;;;0.80;;
20146;SDS011;10234;50.856;15.716;2023-03-23T08:40:31;1.23;;;0.88;;
20146;SDS011;10234;50.856;15.716;2023-03-23T08:42:58;0.80;;;0.80;;
20146;SDS011;10234;50.856;15.716;2023-03-23T08:45:26;1.35;;;0.98;;
20146;SDS011;10234;50.856;15.716;2023-03-23T08:47:53;0.98;;;0.98;;
20146;SDS011;10234;50.856;15.716;2023-03-23T08:50:22;1.38;;;1.00;;
20146;SDS011;10234;50.856;15.716;2023-03-23T08:52:51;1.10;;;0.82;;
20146;SDS011;10234;50.856;15.716;2023-03-23T08:55:19;1.13;;;1.02;;
20146;SDS011;10234;50.856;15.716;2023-03-23T08:57:46;1.83;;;0.82;;
20146;SDS011;10234;50.856;15.716;2023-03-23T09:00:15;1.92;;;1.00;;
20146;SDS011;10234;50.856;15.716;2023-03-23T09:02:45;2.08;;;0.90;;
20146;SDS011;10234;50.856;15.716;2023-03-23T09:05:13;3.58;;;1.10;;
20146;SDS011;10234;50.856;15.716;2023-03-23T09:07:41;1.67;;;1.15;;
20146;SDS011;10234;50.856;15.716;2023-03-23T09:10:09;1.38;;;0.90;;
20146;SDS011;10234;50.856;15.716;2023-03-23T09:12:36;1.80;;;0.90;;
20146;SDS011;10234;50.856;15.716;2023-03-23T09:15:04;1.65;;;1.23;;
20146;SDS011;10234;50.856;15.716;2023-03-23T09:17:34;1.35;;;0.93;;
20146;SDS011;10234;50.856;15.716;2023-03-23T09:20:04;0.85;;;0.85;;
20146;SDS011;10234;50.856;15.716;2023-03-23T09:22:35;1.67;;;0.90;;
20146;SDS011;10234;50.856;15.716;2023-03-23T09:25:03;2.20;;;1.40;;
20146;SDS011;10234;50.856;15.716;2023-03-23T09:27:31;0.93;;;0.90;;
20146;SDS011;10234;50.856;15.716;2023-03-23T09:29:58;3.05;;;1.17;;
20146;SDS011;10234;50.856;15.716;2023-03-23T09:32:26;2.03;;;1.20;;
20146;SDS011;10234;50.856;15.716;2023-03-23T09:34:53;3.08;;;1.27;;
20146;SDS011;10234;50.856;15.716;2023-03-23T09:37:22;1.50;;;1.10;;
20146;SDS011;10234;50.856;15.716;2023-03-23T09:39:49;1.50;;;1.20;;
20146;SDS011;10234;50.856;15.716;2023-03-23T09:42:27;1.67;;;1.17;;
20146;SDS011;10234;50.856;15.716;2023-03-23T09:45:07;1.13;;;1.02;;
20146;SDS011;10234;50.856;15.716;2023-03-23T09:47:42;1.20;;;1.10;;
20146;SDS011;10234;50.856;15.716;2023-03-23T09:50:16;1.65;;;1.08;;
20146;SDS011;10234;50.856;15.716;2023-03-23T09:52:49;0.93;;;0.93;;
20146;SDS011;10234;50.856;15.716;2023-03-23T09:55:21;2.50;;;1.30;;
20146;SDS011;10234;50.856;15.716;2023-03-23T09:57:50;2.00;;;1.10;;
20146;SDS011;10234;50.856;15.716;2023-03-23T10:00:22;2.25;;;1.00;;
20146;SDS011;10234;50.856;15.716;2023-03-23T10:02:55;1.08;;;0.80;;
20146;SDS011;10234;50.856;15.716;2023-03-23T10:05:30;1.25;;;0.73;;
20146;SDS011;10234;50.856;15.716;2023-03-23T10:08:00;1.58;;;1.20;;
20146;SDS011;10234;50.856;15.716;2023-03-23T10:10:31;2.45;;;0.90;;
20146;SDS011;10234;50.856;15.716;2023-03-23T10:13:07;0.95;;;0.85;;
20146;SDS011;10234;50.856;15.716;2023-03-23T10:15:43;1.92;;;1.02;;
20146;SDS011;10234;50.856;15.716;2023-03-23T10:18:12;1.65;;;1.10;;
20146;SDS011;10234;50.856;15.716;2023-03-23T10:20:43;2.63;;;1.27;;
20146;SDS011;10234;50.856;15.716;2023-03-23T10:23:24;1.77;;;1.20;;
20146;SDS011;10234;50.856;15.716;2023-03-23T10:26:09;1.75;;;0.90;;
20146;SDS011;10234;50.856;15.716;2023-03-23T10:28:43;1.70;;;1.23;;
20146;SDS011;10234;50.856;15.716;2023-03-23T10:31:13;3.92;;;1.00;;
20146;SDS011;10234;50.856;15.716;2023-03-23T10:33:43;1.30;;;1.20;;
20146;SDS011;10234;50.856;15.716;2023-03-23T10:36:12;1.30;;;1.20;;
20146;SDS011;10234;50.856;15.716;2023-03-23T10:38:47;1.42;;;0.95;;
20146;SDS011;10234;50.856;15.716;2023-03-23T10:41:19;2.47;;;1.15;;
20146;SDS011;10234;50.856;15.716;2023-03-23T10:43:47;1.80;;;1.20;;
20146;SDS011;10234;50.856;15.716;2023-03-23T10:46:17;1.33;;;1.20;;
20146;SDS011;10234;50.856;15.716;2023-03-23T10:48:52;2.22;;;1.20;;
20146;SDS011;10234;50.856;15.716;2023-03-23T10:51:22;1.50;;;1.40;;
20146;SDS011;10234;50.856;15.716;2023-03-23T10:53:58;10.63;;;1.50;;
20146;SDS011;10234;50.856;15.716;2023-03-23T10:56:27;2.13;;;1.20;;
20146;SDS011;10234;50.856;15.716;2023-03-23T10:59:10;2.90;;;1.10;;
20146;SDS011;10234;50.856;15.716;2023-03-23T11:01:38;1.60;;;1.50;;
20146;SDS011;10234;50.856;15.716;2023-03-23T11:04:10;1.50;;;1.40;;
20146;SDS011;10234;50.856;15.716;2023-03-23T11:06:42;2.15;;;1.30;;
20146;SDS011;10234;50.856;15.716;2023-03-23T11:09:13;2.60;;;1.90;;
20146;SDS011;10234;50.856;15.716;2023-03-23T11:11:43;2.45;;;1.42;;
20146;SDS011;10234;50.856;15.716;2023-03-23T11:14:15;2.45;;;1.50;;
20146;SDS011;10234;50.856;15.716;2023-03-23T11:16:45;2.38;;;1.55;;
20146;SDS011;10234;50.856;15.716;2023-03-23T11:19:21;1.40;;;1.30;;
20146;SDS011;10234;50.856;15.716;2023-03-23T11:21:50;1.67;;;1.38;;
20146;SDS011;10234;50.856;15.716;2023-03-23T11:24:22;1.50;;;1.40;;
20146;SDS011;10234;50.856;15.716;2023-03-23T11:26:49;2.05;;;1.50;;
20146;SDS011;10234;50.856;15.716;2023-03-23T11:29:18;2.03;;;1.40;;
20146;SDS011;10234;50.856;15.716;2023-03-23T11:31:48;3.67;;;1.50;;
20146;SDS011;10234;50.856;15.716;2023-03-23T11:34:17;1.50;;;1.33;;
20146;SDS011;10234;50.856;15.716;2023-03-23T11:36:47;3.45;;;1.63;;
20146;SDS011;10234;50.856;15.716;2023-03-23T11:39:20;2.17;;;1.75;;
20146;SDS011;10234;50.856;15.716;2023-03-23T11:41:50;3.92;;;1.73;;
20146;SDS011;10234;50.856;15.716;2023-03-23T11:44:17;1.90;;;1.58;;
20146;SDS011;10234;50.856;15.716;2023-03-23T11:46:47;1.48;;;1.38;;
20146;SDS011;10234;50.856;15.716;2023-03-23T11:49:27;2.85;;;2.10;;
20146;SDS011;10234;50.856;15.716;2023-03-23T11:52:04;5.40;;;3.42;;
20146;SDS011;10234;50.856;15.716;2023-03-23T11:54:38;5.97;;;2.80;;
20146;SDS011;10234;50.856;15.716;2023-03-23T11:57:07;2.40;;;1.90;;
20146;SDS011;10234;50.856;15.716;2023-03-23T11:59:37;2.42;;;1.65;;
20146;SDS011;10234;50.856;15.716;2023-03-23T12:02:10;1.80;;;1.67;;
20146;SDS011;10234;50.856;15.716;2023-03-23T12:04:57;4.07;;;2.15;;
20146;SDS011;10234;50.856;15.716;2023-03-23T12:07:45;2.72;;;1.80;;
20146;SDS011;10234;50.856;15.716;2023-03-23T12:10:26;7.38;;;5.55;;
20146;SDS011;10234;50.856;15.716;2023-03-23T12:13:01;2.15;;;1.90;;
20146;SDS011;10234;50.856;15.716;2023-03-23T12:15:37;3.88;;;2.60;;
20146;SDS011;10234;50.856;15.716;2023-03-23T12:18:12;3.40;;;2.85;;
20146;SDS011;10234;50.856;15.716;2023-03-23T12:20:47;7.93;;;4.47;;
20146;SDS011;10234;50.856;15.716;2023-03-23T12:23:22;2.88;;;1.55;;
20146;SDS011;10234;50.856;15.716;2023-03-23T12:26:00;2.42;;;1.95;;
20146;SDS011;10234;50.856;15.716;2023-03-23T12:28:39;2.35;;;1.60;;
20146;SDS011;10234;50.856;15.716;2023-03-23T12:31:19;3.08;;;1.77;;
20146;SDS011;10234;50.856;15.716;2023-03-23T12:33:54;1.95;;;1.50;;
20146;SDS011;10234;50.856;15.716;2023-03-23T12:36:29;1.92;;;1.58;;
20146;SDS011;10234;50.856;15.716;2023-03-23T12:39:10;4.32;;;1.80;;
20146;SDS011;10234;50.856;15.716;2023-03-23T12:42:02;1.52;;;1.42;;
20146;SDS011;10234;50.856;15.716;2023-03-23T12:44:35;1.58;;;1.27;;
20146;SDS011;10234;50.856;15.716;2023-03-23T12:47:10;3.85;;;2.28;;
20146;SDS011;10234;50.856;15.716;2023-03-23T12:49:50;1.70;;;1.42;;
20146;SDS011;10234;50.856;15.716;2023-03-23T12:52:21;2.35;;;1.10;;
20146;SDS011;10234;50.856;15.716;2023-03-23T12:54:52;1.30;;;1.20;;
20146;SDS011;10234;50.856;15.716;2023-03-23T12:57:25;2.40;;;1.50;;
20146;SDS011;10234;50.856;15.716;2023-03-23T12:59:58;4.30;;;1.95;;
20146;SDS011;10234;50.856;15.716;2023-03-23T13:02:37;3.72;;;1.83;;
20146;SDS011;10234;50.856;15.716;2023-03-23T13:05:08;1.35;;;1.25;;
20146;SDS011;10234;50.856;15.716;2023-03-23T13:07:52;1.33;;;1.23;;
20146;SDS011;10234;50.856;15.716;2023-03-23T13:10:22;1.98;;;1.10;;
20146;SDS011;10234;50.856;15.716;2023-03-23T13:12:54;3.15;;;1.10;;
20146;SDS011;10234;50.856;15.716;2023-03-23T13:15:26;1.20;;;1.10;;
20146;SDS011;10234;50.856;15.716;2023-03-23T13:18:04;1.70;;;1.40;;
20146;SDS011;10234;50.856;15.716;2023-03-23T13:20:42;1.40;;;1.30;;
20146;SDS011;10234;50.856;15.716;2023-03-23T13:23:19;1.70;;;1.20;;
20146;SDS011;10234;50.856;15.716;2023-03-23T13:25:49;1.85;;;1.20;;
20146;SDS011;10234;50.856;15.716;2023-03-23T13:28:21;1.40;;;1.30;;
20146;SDS011;10234;50.856;15.716;2023-03-23T13:30:55;1.23;;;1.10;;
20146;SDS011;10234;50.856;15.716;2023-03-23T13:33:23;1.30;;;1.10;;
20146;SDS011;10234;50.856;15.716;2023-03-23T13:35:50;2.33;;;1.10;;
20146;SDS011;10234;50.856;15.716;2023-03-23T13:38:19;1.92;;;1.27;;
20146;SDS011;10234;50.856;15.716;2023-03-23T13:40:49;1.33;;;1.20;;
20146;SDS011;10234;50.856;15.716;2023-03-23T13:43:26;2.92;;;1.10;;
20146;SDS011;10234;50.856;15.716;2023-03-23T13:45:55;1.27;;;1.17;;
20146;SDS011;10234;50.856;15.716;2023-03-23T13:48:45;1.20;;;1.10;;
20146;SDS011;10234;50.856;15.716;2023-03-23T13:51:27;1.38;;;1.27;;
20146;SDS011;10234;50.856;15.716;2023-03-23T13:54:13;1.30;;;1.20;;
20146;SDS011;10234;50.856;15.716;2023-03-23T13:56:48;1.50;;;1.02;;
20146;SDS011;10234;50.856;15.716;2023-03-23T13:59:30;1.23;;;1.13;;
20146;SDS011;10234;50.856;15.716;2023-03-23T14:04:55;1.55;;;1.38;;
20146;SDS011;10234;50.856;15.716;2023-03-23T14:07:22;1.17;;;1.00;;
20146;SDS011;10234;50.856;15.716;2023-03-23T14:09:50;1.42;;;1.08;;
20146;SDS011;10234;50.856;15.716;2023-03-23T14:12:18;1.10;;;0.93;;
20146;SDS011;10234;50.856;15.716;2023-03-23T14:14:50;3.03;;;1.40;;
20146;SDS011;10234;50.856;15.716;2023-03-23T14:17:23;1.80;;;0.93;;
20146;SDS011;10234;50.856;15.716;2023-03-23T14:19:52;1.10;;;0.98;;
20146;SDS011;10234;50.856;15.716;2023-03-23T14:22:23;1.33;;;1.23;;
20146;SDS011;10234;50.856;15.716;2023-03-23T14:24:51;2.08;;;0.95;;
20146;SDS011;10234;50.856;15.716;2023-03-23T14:27:26;1.13;;;1.02;;
20146;SDS011;10234;50.856;15.716;2023-03-23T14:30:04;1.50;;;1.40;;
20146;SDS011;10234;50.856;15.716;2023-03-23T14:32:33;1.75;;;1.13;;
20146;SDS011;10234;50.856;15.716;2023-03-23T14:35:04;1.23;;;1.13;;
20146;SDS011;10234;50.856;15.716;2023-03-23T14:37:34;1.67;;;1.40;;
20146;SDS011;10234;50.856;15.716;2023-03-23T14:40:02;1.15;;;1.05;;
20146;SDS011;10234;50.856;15.716;2023-03-23T14:42:31;1.20;;;1.10;;
20146;SDS011;10234;50.856;15.716;2023-03-23T14:45:00;1.13;;;1.05;;
20146;SDS011;10234;50.856;15.716;2023-03-23T14:47:32;1.80;;;1.35;;
20146;SDS011;10234;50.856;15.716;2023-03-23T14:50:02;1.90;;;1.27;;
20146;SDS011;10234;50.856;15.716;2023-03-23T14:52:33;1.30;;;1.10;;
20146;SDS011;10234;50.856;15.716;2023-03-23T14:55:10;1.50;;;1.40;;
20146;SDS011;10234;50.856;15.716;2023-03-23T14:57:40;1.40;;;1.30;;